sensor_id;sensor_type;location;lat;lon;timestamp;pressure;altitude;pressure_sealevel;temperature;humidity
50484;BME280;36409;52.168;20.878;2023-04-15T00:01:14;99682.28;;;9.88;63.96
50484;BME280;36409;52.168;20.878;2023-04-15T00:03:51;99688.33;;;9.90;64.36
50484;BME280;36409;52.168;20.878;2023-04-15T00:06:25;99684.88;;;9.88;64.40
50484;BME280;36409;52.168;20.878;2023-04-15T00:08:57;99685.73;;;9.88;63.78
50484;BME280;36409;52.168;20.878;2023-04-15T00:11:30;99685.78;;;9.87;63.92
50484;BME280;36409;52.168;20.878;2023-04-15T00:14:02;99685.00;;;9.82;64.17
50484;BME280;36409;52.168;20.878;2023-04-15T00:16:36;99681.61;;;9.78;64.07
50484;BME280;36409;52.168;20.878;2023-04-15T00:19:09;99685.16;;;9.76;64.59
50484;BME280;36409;52.168;20.878;2023-04-15T00:21:42;99692.14;;;9.73;64.70
50484;BME280;36409;52.168;20.878;2023-04-15T00:24:14;99691.35;;;9.70;64.13
50484;BME280;36409;52.168;20.878;2023-04-15T00:26:46;99686.16;;;9.68;64.20
50484;BME280;36409;52.168;20.878;2023-04-15T00:29:19;99681.87;;;9.66;65.04
50484;BME280;36409;52.168;20.878;2023-04-15T00:31:54;99686.25;;;9.64;64.60
50484;BME280;36409;52.168;20.878;2023-04-15T00:34:27;99682.86;;;9.60;64.87
50484;BME280;36409;52.168;20.878;2023-04-15T00:36:59;99685.61;;;9.54;64.72
50484;BME280;36409;52.168;20.878;2023-04-15T00:39:31;99677.01;;;9.50;65.17
50484;BME280;36409;52.168;20.878;2023-04-15T00:42:04;99681.44;;;9.45;65.46
50484;BME280;36409;52.168;20.878;2023-04-15T00:44:36;99673.67;;;9.42;65.04
50484;BME280;36409;52.168;20.878;2023-04-15T00:47:09;99671.96;;;9.41;65.31
50484;BME280;36409;52.168;20.878;2023-04-15T00:49:42;99681.58;;;9.39;65.06
50484;BME280;36409;52.168;20.878;2023-04-15T00:52:14;99680.76;;;9.35;65.67
50484;BME280;36409;52.168;20.878;2023-04-15T00:54:47;99675.64;;;9.31;65.45
50484;BME280;36409;52.168;20.878;2023-04-15T00:57:21;99680.09;;;9.25;65.52
50484;BME280;36409;52.168;20.878;2023-04-15T00:59:54;99676.71;;;9.20;65.79
50484;BME280;36409;52.168;20.878;2023-04-15T01:02:27;99677.69;;;9.15;65.66
50484;BME280;36409;52.168;20.878;2023-04-15T01:04:59;99685.58;;;9.11;66.12
50484;BME280;36409;52.168;20.878;2023-04-15T01:07:31;99679.55;;;9.09;66.53
50484;BME280;36409;52.168;20.878;2023-04-15T01:10:06;99680.39;;;9.10;66.58
50484;BME280;36409;52.168;20.878;2023-04-15T01:12:38;99682.14;;;9.09;66.34
50484;BME280;36409;52.168;20.878;2023-04-15T01:15:12;99683.86;;;9.10;66.77
50484;BME280;36409;52.168;20.878;2023-04-15T01:17:45;99685.58;;;9.11;66.25
50484;BME280;36409;52.168;20.878;2023-04-15T01:20:18;99681.27;;;9.10;66.51
50484;BME280;36409;52.168;20.878;2023-04-15T01:22:51;99689.97;;;9.08;66.58
50484;BME280;36409;52.168;20.878;2023-04-15T01:25:31;99693.49;;;9.05;66.59
50484;BME280;36409;52.168;20.878;2023-04-15T01:28:05;99690.09;;;9.02;66.96
50484;BME280;36409;52.168;20.878;2023-04-15T01:30:39;99689.30;;;8.98;66.75
50484;BME280;36409;52.168;20.878;2023-04-15T01:33:11;99691.06;;;8.96;67.05
50484;BME280;36409;52.168;20.878;2023-04-15T01:35:43;99680.69;;;8.94;67.22
50484;BME280;36409;52.168;20.878;2023-04-15T01:38:16;99686.78;;;8.93;66.99
50484;BME280;36409;52.168;20.878;2023-04-15T01:40:48;99685.91;;;8.93;66.81
50484;BME280;36409;52.168;20.878;2023-04-15T01:43:20;99678.14;;;8.91;67.41
50484;BME280;36409;52.168;20.878;2023-04-15T01:45:53;99688.55;;;8.90;67.12
50484;BME280;36409;52.168;20.878;2023-04-15T01:48:25;99685.16;;;8.86;67.39
50484;BME280;36409;52.168;20.878;2023-04-15T01:50:59;99685.23;;;8.83;67.68
50484;BME280;36409;52.168;20.878;2023-04-15T01:53:32;99683.52;;;8.82;67.63
50484;BME280;36409;52.168;20.878;2023-04-15T01:56:08;99685.28;;;8.80;67.60
50484;BME280;36409;52.168;20.878;2023-04-15T01:58:40;99687.93;;;8.77;67.44
50484;BME280;36409;52.168;20.878;2023-04-15T02:01:13;99683.64;;;8.74;67.81
50484;BME280;36409;52.168;20.878;2023-04-15T02:03:47;99683.73;;;8.70;67.89
50484;BME280;36409;52.168;20.878;2023-04-15T02:06:19;99682.85;;;8.69;67.87
50484;BME280;36409;52.168;20.878;2023-04-15T02:08:51;99682.05;;;8.65;68.31
50484;BME280;36409;52.168;20.878;2023-04-15T02:11:24;99674.25;;;8.65;68.20
50484;BME280;36409;52.168;20.878;2023-04-15T02:13:57;99670.80;;;8.65;68.19
50484;BME280;36409;52.168;20.878;2023-04-15T02:16:29;99674.28;;;8.64;68.35
50484;BME280;36409;52.168;20.878;2023-04-15T02:19:02;99669.97;;;8.61;68.40
50484;BME280;36409;52.168;20.878;2023-04-15T02:21:34;99675.20;;;8.60;68.53
50484;BME280;36409;52.168;20.878;2023-04-15T02:24:07;99669.17;;;8.58;68.78
50484;BME280;36409;52.168;20.878;2023-04-15T02:26:39;99676.13;;;8.57;68.68
50484;BME280;36409;52.168;20.878;2023-04-15T02:29:11;99677.85;;;8.57;68.58
50484;BME280;36409;52.168;20.878;2023-04-15T02:31:44;99677.89;;;8.55;68.73
50484;BME280;36409;52.168;20.878;2023-04-15T02:34:17;99683.98;;;8.54;68.93
50484;BME280;36409;52.168;20.878;2023-04-15T02:36:50;99680.53;;;8.52;68.94
50484;BME280;36409;52.168;20.878;2023-04-15T02:39:26;99677.09;;;8.52;69.05
50484;BME280;36409;52.168;20.878;2023-04-15T02:41:58;99676.22;;;8.51;69.01
50484;BME280;36409;52.168;20.878;2023-04-15T02:44:31;99676.25;;;8.49;69.15
50484;BME280;36409;52.168;20.878;2023-04-15T02:47:06;99678.02;;;8.47;69.27
50484;BME280;36409;52.168;20.878;2023-04-15T02:49:39;99673.66;;;8.46;69.34
50484;BME280;36409;52.168;20.878;2023-04-15T02:52:11;99676.27;;;8.46;69.76
50484;BME280;36409;52.168;20.878;2023-04-15T02:54:43;99670.22;;;8.46;69.65
50484;BME280;36409;52.168;20.878;2023-04-15T02:57:16;99669.34;;;8.45;69.75
50484;BME280;36409;52.168;20.878;2023-04-15T02:59:48;99667.62;;;8.46;69.61
50484;BME280;36409;52.168;20.878;2023-04-15T03:05:52;99664.14;;;8.45;69.71
50484;BME280;36409;52.168;20.878;2023-04-15T03:08:25;99674.55;;;8.45;69.98
50484;BME280;36409;52.168;20.878;2023-04-15T03:11:00;99665.02;;;8.46;70.08
50484;BME280;36409;52.168;20.878;2023-04-15T03:13:32;99669.34;;;8.47;70.10
50484;BME280;36409;52.168;20.878;2023-04-15T03:16:11;99675.41;;;8.47;70.25
50484;BME280;36409;52.168;20.878;2023-04-15T03:18:44;99669.34;;;8.47;70.21
50484;BME280;36409;52.168;20.878;2023-04-15T03:21:17;99676.29;;;8.48;70.46
50484;BME280;36409;52.168;20.878;2023-04-15T03:23:51;99671.94;;;8.47;70.54
50484;BME280;36409;52.168;20.878;2023-04-15T03:26:29;99673.69;;;8.48;70.58
50484;BME280;36409;52.168;20.878;2023-04-15T03:29:11;99668.48;;;8.48;70.64
50484;BME280;36409;52.168;20.878;2023-04-15T03:31:44;99671.09;;;8.48;70.56
50484;BME280;36409;52.168;20.878;2023-04-15T03:34:17;99672.81;;;8.47;70.67
50484;BME280;36409;52.168;20.878;2023-04-15T03:36:49;99674.53;;;8.47;70.65
50484;BME280;36409;52.168;20.878;2023-04-15T03:39:21;99672.81;;;8.47;70.73
50484;BME280;36409;52.168;20.878;2023-04-15T03:41:54;99676.27;;;8.46;70.99
50484;BME280;36409;52.168;20.878;2023-04-15T03:44:26;99672.81;;;8.47;70.87
50484;BME280;36409;52.168;20.878;2023-04-15T03:46:59;99674.53;;;8.48;70.90
50484;BME280;36409;52.168;20.878;2023-04-15T03:49:32;99675.41;;;8.49;71.18
50484;BME280;36409;52.168;20.878;2023-04-15T03:52:04;99671.05;;;8.49;71.12
50484;BME280;36409;52.168;20.878;2023-04-15T03:54:36;99671.89;;;8.52;71.15
50484;BME280;36409;52.168;20.878;2023-04-15T03:57:08;99674.45;;;8.53;71.23
50484;BME280;36409;52.168;20.878;2023-04-15T03:59:41;99683.13;;;8.54;71.21
50484;BME280;36409;52.168;20.878;2023-04-15T04:02:14;99675.33;;;8.54;70.91
50484;BME280;36409;52.168;20.878;2023-04-15T04:04:46;99671.81;;;8.56;71.10
50484;BME280;36409;52.168;20.878;2023-04-15T04:07:18;99675.25;;;8.57;71.29
50484;BME280;36409;52.168;20.878;2023-04-15T04:09:51;99672.66;;;8.57;71.24
50484;BME280;36409;52.168;20.878;2023-04-15T04:12:23;99677.02;;;8.56;71.31
50484;BME280;36409;52.168;20.878;2023-04-15T04:14:55;99677.05;;;8.55;71.39
50484;BME280;36409;52.168;20.878;2023-04-15T04:17:28;99685.70;;;8.55;71.68
50484;BME280;36409;52.168;20.878;2023-04-15T04:20:00;99683.94;;;8.56;71.66
50484;BME280;36409;52.168;20.878;2023-04-15T04:22:32;99677.05;;;8.55;71.60
50484;BME280;36409;52.168;20.878;2023-04-15T04:25:09;99687.42;;;8.56;71.46
50484;BME280;36409;52.168;20.878;2023-04-15T04:27:40;99677.85;;;8.57;71.69
50484;BME280;36409;52.168;20.878;2023-04-15T04:30:13;99677.89;;;8.55;71.60
50484;BME280;36409;52.168;20.878;2023-04-15T04:32:46;99683.06;;;8.57;71.22
50484;BME280;36409;52.168;20.878;2023-04-15T04:35:18;99685.70;;;8.55;71.62
50484;BME280;36409;52.168;20.878;2023-04-15T04:37:51;99684.85;;;8.55;71.69
50484;BME280;36409;52.168;20.878;2023-04-15T04:40:24;99688.30;;;8.55;71.66
50484;BME280;36409;52.168;20.878;2023-04-15T04:42:57;99677.05;;;8.55;71.78
50484;BME280;36409;52.168;20.878;2023-04-15T04:45:29;99672.69;;;8.55;72.01
50484;BME280;36409;52.168;20.878;2023-04-15T04:48:01;99677.89;;;8.55;72.21
50484;BME280;36409;52.168;20.878;2023-04-15T04:50:37;99683.06;;;8.57;72.34
50484;BME280;36409;52.168;20.878;2023-04-15T04:53:10;99678.73;;;8.57;72.18
50484;BME280;36409;52.168;20.878;2023-04-15T04:55:42;99680.45;;;8.58;72.04
50484;BME280;36409;52.168;20.878;2023-04-15T04:58:14;99676.09;;;8.59;72.16
50484;BME280;36409;52.168;20.878;2023-04-15T05:00:47;99683.02;;;8.60;72.13
50484;BME280;36409;52.168;20.878;2023-04-15T05:03:19;99676.93;;;8.61;72.21
50484;BME280;36409;52.168;20.878;2023-04-15T05:05:53;99679.53;;;8.61;71.93
50484;BME280;36409;52.168;20.878;2023-04-15T05:08:25;99682.98;;;8.61;72.18
50484;BME280;36409;52.168;20.878;2023-04-15T05:10:58;99675.17;;;8.61;72.35
50484;BME280;36409;52.168;20.878;2023-04-15T05:13:30;99683.89;;;8.60;72.43
50484;BME280;36409;52.168;20.878;2023-04-15T05:16:03;99687.34;;;8.61;72.16
50484;BME280;36409;52.168;20.878;2023-04-15T05:18:35;99689.94;;;8.61;72.45
50484;BME280;36409;52.168;20.878;2023-04-15T05:21:07;99687.38;;;8.59;72.57
50484;BME280;36409;52.168;20.878;2023-04-15T05:23:40;99693.42;;;8.60;72.39
50484;BME280;36409;52.168;20.878;2023-04-15T05:26:12;99689.09;;;8.60;72.45
50484;BME280;36409;52.168;20.878;2023-04-15T05:28:45;99687.30;;;8.62;72.61
50484;BME280;36409;52.168;20.878;2023-04-15T05:31:17;99685.58;;;8.63;72.59
50484;BME280;36409;52.168;20.878;2023-04-15T05:33:50;99679.50;;;8.62;72.65
50484;BME280;36409;52.168;20.878;2023-04-15T05:36:23;99689.02;;;8.63;72.64
50484;BME280;36409;52.168;20.878;2023-04-15T05:38:55;99695.02;;;8.67;72.72
50484;BME280;36409;52.168;20.878;2023-04-15T05:41:28;99691.53;;;8.70;72.63
50484;BME280;36409;52.168;20.878;2023-04-15T05:44:01;99694.13;;;8.70;72.27
50484;BME280;36409;52.168;20.878;2023-04-15T05:46:34;99695.02;;;8.69;72.59
50484;BME280;36409;52.168;20.878;2023-04-15T05:49:10;99699.34;;;8.70;72.79
50484;BME280;36409;52.168;20.878;2023-04-15T05:51:42;99701.06;;;8.71;72.64
50484;BME280;36409;52.168;20.878;2023-04-15T05:54:14;99694.97;;;8.72;72.99
50484;BME280;36409;52.168;20.878;2023-04-15T05:56:49;99698.42;;;8.72;72.69
50484;BME280;36409;52.168;20.878;2023-04-15T05:59:22;99697.58;;;8.72;72.93
50484;BME280;36409;52.168;20.878;2023-04-15T06:01:55;99701.06;;;8.71;72.92
50484;BME280;36409;52.168;20.878;2023-04-15T06:04:30;99698.45;;;8.71;73.20
50484;BME280;36409;52.168;20.878;2023-04-15T06:07:02;99697.62;;;8.69;73.22
50484;BME280;36409;52.168;20.878;2023-04-15T06:09:35;99700.18;;;8.70;73.12
50484;BME280;36409;52.168;20.878;2023-04-15T06:12:07;99705.39;;;8.70;73.15
50484;BME280;36409;52.168;20.878;2023-04-15T06:14:42;99701.91;;;8.71;73.49
50484;BME280;36409;52.168;20.878;2023-04-15T06:17:16;99714.03;;;8.72;73.21
50484;BME280;36409;52.168;20.878;2023-04-15T06:19:49;99713.15;;;8.73;73.49
50484;BME280;36409;52.168;20.878;2023-04-15T06:22:25;99702.78;;;8.72;73.40
50484;BME280;36409;52.168;20.878;2023-04-15T06:24:58;99716.67;;;8.71;73.23
50484;BME280;36409;52.168;20.878;2023-04-15T06:27:31;99716.59;;;8.74;73.62
50484;BME280;36409;52.168;20.878;2023-04-15T06:30:04;99717.47;;;8.74;73.46
50484;BME280;36409;52.168;20.878;2023-04-15T06:32:36;99713.98;;;8.75;73.30
50484;BME280;36409;52.168;20.878;2023-04-15T06:35:10;99720.91;;;8.75;73.32
50484;BME280;36409;52.168;20.878;2023-04-15T06:37:42;99720.03;;;8.76;73.83
50484;BME280;36409;52.168;20.878;2023-04-15T06:40:15;99716.55;;;8.77;73.22
50484;BME280;36409;52.168;20.878;2023-04-15T06:42:47;99712.22;;;8.77;73.51
50484;BME280;36409;52.168;20.878;2023-04-15T06:45:20;99720.88;;;8.78;73.19
50484;BME280;36409;52.168;20.878;2023-04-15T06:47:52;99723.44;;;8.79;73.53
50484;BME280;36409;52.168;20.878;2023-04-15T06:50:27;99721.71;;;8.80;73.08
50484;BME280;36409;52.168;20.878;2023-04-15T06:52:59;99718.23;;;8.81;73.39
50484;BME280;36409;52.168;20.878;2023-04-15T06:55:32;99723.39;;;8.83;73.61
50484;BME280;36409;52.168;20.878;2023-04-15T06:58:04;99729.44;;;8.85;73.63
50484;BME280;36409;52.168;20.878;2023-04-15T07:00:36;99721.59;;;8.86;73.66
50484;BME280;36409;52.168;20.878;2023-04-15T07:03:10;99732.80;;;8.90;73.43
50484;BME280;36409;52.168;20.878;2023-04-15T07:05:43;99739.72;;;8.92;73.46
50484;BME280;36409;52.168;20.878;2023-04-15T07:08:16;99737.12;;;8.92;73.91
50484;BME280;36409;52.168;20.878;2023-04-15T07:10:49;99740.60;;;8.91;73.85
50484;BME280;36409;52.168;20.878;2023-04-15T07:13:21;99744.92;;;8.92;73.55
50484;BME280;36409;52.168;20.878;2023-04-15T07:15:55;99738.84;;;8.93;74.20
50484;BME280;36409;52.168;20.878;2023-04-15T07:18:29;99744.92;;;8.92;73.69
50484;BME280;36409;52.168;20.878;2023-04-15T07:21:03;99741.41;;;8.95;73.75
50484;BME280;36409;52.168;20.878;2023-04-15T07:23:36;99745.77;;;8.94;73.77
50484;BME280;36409;52.168;20.878;2023-04-15T07:26:08;99755.25;;;8.97;73.85
50484;BME280;36409;52.168;20.878;2023-04-15T07:28:41;99750.00;;;9.00;73.72
50484;BME280;36409;52.168;20.878;2023-04-15T07:31:18;99747.41;;;9.00;73.48
50484;BME280;36409;52.168;20.878;2023-04-15T07:33:54;99749.08;;;9.03;74.05
50484;BME280;36409;52.168;20.878;2023-04-15T07:36:32;99742.07;;;9.06;73.96
50484;BME280;36409;52.168;20.878;2023-04-15T07:39:07;99744.67;;;9.06;73.62
50484;BME280;36409;52.168;20.878;2023-04-15T07:41:40;99744.67;;;9.06;73.88
50484;BME280;36409;52.168;20.878;2023-04-15T07:44:13;99744.64;;;9.08;74.17
50484;BME280;36409;52.168;20.878;2023-04-15T07:46:45;99737.70;;;9.08;73.92
50484;BME280;36409;52.168;20.878;2023-04-15T07:49:18;99742.02;;;9.09;74.12
50484;BME280;36409;52.168;20.878;2023-04-15T07:51:51;99743.66;;;9.14;74.05
50484;BME280;36409;52.168;20.878;2023-04-15T07:54:25;99741.05;;;9.15;74.11
50484;BME280;36409;52.168;20.878;2023-04-15T07:56:59;99740.98;;;9.18;73.97
50484;BME280;36409;52.168;20.878;2023-04-15T07:59:31;99741.02;;;9.17;73.80
50484;BME280;36409;52.168;20.878;2023-04-15T08:02:04;99742.73;;;9.18;73.98
50484;BME280;36409;52.168;20.878;2023-04-15T08:04:36;99751.38;;;9.20;73.74
50484;BME280;36409;52.168;20.878;2023-04-15T08:07:09;99746.17;;;9.20;74.31
50484;BME280;36409;52.168;20.878;2023-04-15T08:09:42;99739.20;;;9.22;73.92
50484;BME280;36409;52.168;20.878;2023-04-15T08:12:14;99747.81;;;9.25;73.90
50484;BME280;36409;52.168;20.878;2023-04-15T08:14:48;99741.72;;;9.26;74.08
50484;BME280;36409;52.168;20.878;2023-04-15T08:17:21;99746.84;;;9.30;73.86
50484;BME280;36409;52.168;20.878;2023-04-15T08:19:53;99742.52;;;9.30;74.14
50484;BME280;36409;52.168;20.878;2023-04-15T08:22:27;99745.02;;;9.35;74.19
50484;BME280;36409;52.168;20.878;2023-04-15T08:24:59;99741.53;;;9.36;73.92
50484;BME280;36409;52.168;20.878;2023-04-15T08:27:32;99746.66;;;9.40;74.63
50484;BME280;36409;52.168;20.878;2023-04-15T08:30:06;99749.20;;;9.43;74.18
50484;BME280;36409;52.168;20.878;2023-04-15T08:32:40;99746.52;;;9.47;74.01
50484;BME280;36409;52.168;20.878;2023-04-15T08:35:13;99749.08;;;9.50;74.50
50484;BME280;36409;52.168;20.878;2023-04-15T08:37:46;99743.86;;;9.51;74.31
50484;BME280;36409;52.168;20.878;2023-04-15T08:40:18;99741.95;;;9.58;74.84
50484;BME280;36409;52.168;20.878;2023-04-15T08:42:53;99749.61;;;9.67;74.50
50484;BME280;36409;52.168;20.878;2023-04-15T08:45:29;99745.98;;;9.74;73.98
50484;BME280;36409;52.168;20.878;2023-04-15T08:48:03;99740.72;;;9.78;74.46
50484;BME280;36409;52.168;20.878;2023-04-15T08:50:36;99747.66;;;9.77;74.65
50484;BME280;36409;52.168;20.878;2023-04-15T08:53:09;99748.45;;;9.81;74.63
50484;BME280;36409;52.168;20.878;2023-04-15T08:55:43;99751.89;;;9.83;74.12
50484;BME280;36409;52.168;20.878;2023-04-15T08:58:17;99743.95;;;9.89;74.57
50484;BME280;36409;52.168;20.878;2023-04-15T09:00:50;99748.28;;;9.90;74.20
50484;BME280;36409;52.168;20.878;2023-04-15T09:03:23;99752.56;;;9.93;73.77
50484;BME280;36409;52.168;20.878;2023-04-15T09:05:59;99748.17;;;9.95;74.58
50484;BME280;36409;52.168;20.878;2023-04-15T09:08:32;99752.52;;;9.94;74.29
50484;BME280;36409;52.168;20.878;2023-04-15T09:11:06;99750.78;;;9.95;74.54
50484;BME280;36409;52.168;20.878;2023-04-15T09:13:39;99748.97;;;9.97;74.43
50484;BME280;36409;52.168;20.878;2023-04-15T09:16:11;99748.97;;;9.97;74.40
50484;BME280;36409;52.168;20.878;2023-04-15T09:18:44;99752.41;;;9.99;74.63
50484;BME280;36409;52.168;20.878;2023-04-15T09:21:18;99750.64;;;10.01;74.78
50484;BME280;36409;52.168;20.878;2023-04-15T09:23:58;99754.92;;;10.03;74.01
50484;BME280;36409;52.168;20.878;2023-04-15T09:26:34;99751.36;;;10.08;75.10
50484;BME280;36409;52.168;20.878;2023-04-15T09:29:08;99757.36;;;10.11;74.17
50484;BME280;36409;52.168;20.878;2023-04-15T09:31:43;99755.69;;;10.09;74.05
50484;BME280;36409;52.168;20.878;2023-04-15T09:34:15;99742.70;;;10.07;74.96
50484;BME280;36409;52.168;20.878;2023-04-15T09:36:55;99753.14;;;10.05;74.21
50484;BME280;36409;52.168;20.878;2023-04-15T09:39:46;99756.58;;;10.08;74.77
50484;BME280;36409;52.168;20.878;2023-04-15T09:42:20;99754.02;;;10.06;74.48
50484;BME280;36409;52.168;20.878;2023-04-15T09:44:54;99761.73;;;10.11;74.27
50484;BME280;36409;52.168;20.878;2023-04-15T09:47:30;99766.08;;;10.10;74.63
50484;BME280;36409;52.168;20.878;2023-04-15T09:50:03;99766.13;;;10.09;75.03
50484;BME280;36409;52.168;20.878;2023-04-15T09:52:39;99766.08;;;10.10;74.33
50484;BME280;36409;52.168;20.878;2023-04-15T09:55:13;99764.41;;;10.08;74.22
50484;BME280;36409;52.168;20.878;2023-04-15T09:57:47;99774.83;;;10.08;74.43
50484;BME280;36409;52.168;20.878;2023-04-15T10:00:19;99773.95;;;10.09;74.89
50484;BME280;36409;52.168;20.878;2023-04-15T10:02:52;99773.89;;;10.12;74.79
50484;BME280;36409;52.168;20.878;2023-04-15T10:05:25;99770.34;;;10.14;74.41
50484;BME280;36409;52.168;20.878;2023-04-15T10:07:59;99764.25;;;10.14;74.47
50484;BME280;36409;52.168;20.878;2023-04-15T10:10:32;99772.08;;;10.14;74.65
50484;BME280;36409;52.168;20.878;2023-04-15T10:13:05;99777.34;;;10.12;74.65
50484;BME280;36409;52.168;20.878;2023-04-15T10:15:38;99768.52;;;10.18;74.91
50484;BME280;36409;52.168;20.878;2023-04-15T10:18:12;99764.87;;;10.25;74.46
50484;BME280;36409;52.168;20.878;2023-04-15T10:20:48;99767.25;;;10.36;74.05
50484;BME280;36409;52.168;20.878;2023-04-15T10:23:22;99764.44;;;10.47;74.38
50484;BME280;36409;52.168;20.878;2023-04-15T10:25:56;99772.16;;;10.52;74.60
50484;BME280;36409;52.168;20.878;2023-04-15T10:28:30;99764.17;;;10.58;74.72
50484;BME280;36409;52.168;20.878;2023-04-15T10:31:03;99761.45;;;10.62;75.16
50484;BME280;36409;52.168;20.878;2023-04-15T10:33:37;99770.06;;;10.66;74.27
50484;BME280;36409;52.168;20.878;2023-04-15T10:36:10;99772.67;;;10.66;74.75
50484;BME280;36409;52.168;20.878;2023-04-15T10:38:44;99772.66;;;10.68;74.60
50484;BME280;36409;52.168;20.878;2023-04-15T10:41:19;99766.49;;;10.70;74.53
50484;BME280;36409;52.168;20.878;2023-04-15T10:43:55;99768.20;;;10.71;75.08
50484;BME280;36409;52.168;20.878;2023-04-15T10:46:36;99768.16;;;10.73;74.19
50484;BME280;36409;52.168;20.878;2023-04-15T10:49:13;99779.59;;;10.69;74.65
50484;BME280;36409;52.168;20.878;2023-04-15T10:51:50;99766.44;;;10.72;75.35
50484;BME280;36409;52.168;20.878;2023-04-15T10:54:32;99778.60;;;10.73;74.85
50484;BME280;36409;52.168;20.878;2023-04-15T10:57:12;99775.16;;;10.71;74.89
50484;BME280;36409;52.168;20.878;2023-04-15T11:00:08;99772.67;;;10.66;74.58
50484;BME280;36409;52.168;20.878;2023-04-15T11:02:53;99775.39;;;10.61;74.61
50484;BME280;36409;52.168;20.878;2023-04-15T11:05:50;99778.88;;;10.62;74.73
50484;BME280;36409;52.168;20.878;2023-04-15T11:08:58;99782.16;;;10.70;74.71
50484;BME280;36409;52.168;20.878;2023-04-15T11:12:07;99778.54;;;10.76;74.52
50484;BME280;36409;52.168;20.878;2023-04-15T11:14:41;99785.31;;;10.83;74.72
50484;BME280;36409;52.168;20.878;2023-04-15T11:17:15;99781.74;;;10.87;74.84
50484;BME280;36409;52.168;20.878;2023-04-15T11:19:58;99779.91;;;10.91;74.69
50484;BME280;36409;52.168;20.878;2023-04-15T11:22:31;99778.05;;;10.96;74.97
50484;BME280;36409;52.168;20.878;2023-04-15T11:25:03;99783.98;;;11.03;74.61
50484;BME280;36409;52.168;20.878;2023-04-15T11:27:36;99788.19;;;11.08;74.62
50484;BME280;36409;52.168;20.878;2023-04-15T11:30:20;99787.17;;;11.14;74.47
50484;BME280;36409;52.168;20.878;2023-04-15T11:32:56;99790.39;;;11.24;74.08
50484;BME280;36409;52.168;20.878;2023-04-15T11:35:29;99797.95;;;11.35;74.27
50484;BME280;36409;52.168;20.878;2023-04-15T11:38:04;99787.30;;;11.42;74.13
50484;BME280;36409;52.168;20.878;2023-04-15T11:40:40;99791.33;;;11.54;74.87
50484;BME280;36409;52.168;20.878;2023-04-15T11:43:19;99786.61;;;11.67;74.48
50484;BME280;36409;52.168;20.878;2023-04-15T11:45:54;99792.39;;;11.79;74.95
50484;BME280;36409;52.168;20.878;2023-04-15T11:48:28;99791.34;;;11.86;74.09
50484;BME280;36409;52.168;20.878;2023-04-15T11:51:02;99787.58;;;11.95;74.34
50484;BME280;36409;52.168;20.878;2023-04-15T11:53:40;99793.36;;;12.08;74.67
50484;BME280;36409;52.168;20.878;2023-04-15T11:56:19;99791.30;;;12.17;74.87
50484;BME280;36409;52.168;20.878;2023-04-15T11:58:54;99798.17;;;12.22;74.69
50484;BME280;36409;52.168;20.878;2023-04-15T12:01:35;99803.41;;;12.22;73.50
50484;BME280;36409;52.168;20.878;2023-04-15T12:04:13;99803.46;;;12.20;73.77
50484;BME280;36409;52.168;20.878;2023-04-15T12:06:49;99809.67;;;12.16;74.23
50484;BME280;36409;52.168;20.878;2023-04-15T12:09:21;99808.02;;;12.13;74.44
50484;BME280;36409;52.168;20.878;2023-04-15T12:11:59;99814.14;;;12.12;73.51
50484;BME280;36409;52.168;20.878;2023-04-15T12:14:33;99810.44;;;12.19;73.20
50484;BME280;36409;52.168;20.878;2023-04-15T12:17:07;99810.16;;;12.29;74.03
50484;BME280;36409;52.168;20.878;2023-04-15T12:19:43;99815.16;;;12.36;73.43
50484;BME280;36409;52.168;20.878;2023-04-15T12:22:16;99821.13;;;12.42;73.74
50484;BME280;36409;52.168;20.878;2023-04-15T12:24:56;99818.53;;;12.40;72.51
50484;BME280;36409;52.168;20.878;2023-04-15T12:27:30;99821.16;;;12.40;73.06
50484;BME280;36409;52.168;20.878;2023-04-15T12:30:06;99829.00;;;12.40;72.55
50484;BME280;36409;52.168;20.878;2023-04-15T12:32:39;99824.64;;;12.41;72.64
50484;BME280;36409;52.168;20.878;2023-04-15T12:35:13;99831.68;;;12.39;73.86
50484;BME280;36409;52.168;20.878;2023-04-15T12:37:45;99833.34;;;12.41;73.52
50484;BME280;36409;52.168;20.878;2023-04-15T12:40:18;99834.91;;;12.47;72.74
50484;BME280;36409;52.168;20.878;2023-04-15T12:42:51;99841.92;;;12.46;72.96
50484;BME280;36409;52.168;20.878;2023-04-15T12:45:23;99844.25;;;12.56;73.40
50484;BME280;36409;52.168;20.878;2023-04-15T12:47:59;99834.16;;;12.72;73.28
50484;BME280;36409;52.168;20.878;2023-04-15T12:50:32;99839.06;;;12.82;72.60
50484;BME280;36409;52.168;20.878;2023-04-15T12:53:04;99834.59;;;12.86;72.04
50484;BME280;36409;52.168;20.878;2023-04-15T12:55:36;99836.09;;;12.93;73.32
50484;BME280;36409;52.168;20.878;2023-04-15T12:58:09;99835.69;;;13.06;73.06
50484;BME280;36409;52.168;20.878;2023-04-15T13:00:42;99839.72;;;13.16;73.02
50484;BME280;36409;52.168;20.878;2023-04-15T13:03:14;99842.92;;;13.24;73.18
50484;BME280;36409;52.168;20.878;2023-04-15T13:05:47;99848.14;;;13.26;72.52
50484;BME280;36409;52.168;20.878;2023-04-15T13:08:19;99848.82;;;13.31;71.98
50484;BME280;36409;52.168;20.878;2023-04-15T13:10:52;99851.41;;;13.33;71.48
50484;BME280;36409;52.168;20.878;2023-04-15T13:13:24;99845.88;;;13.42;72.47
50484;BME280;36409;52.168;20.878;2023-04-15T13:15:58;99848.98;;;13.53;71.75
50484;BME280;36409;52.168;20.878;2023-04-15T13:18:30;99853.48;;;13.50;71.08
50484;BME280;36409;52.168;20.878;2023-04-15T13:21:03;99853.27;;;13.56;72.14
50484;BME280;36409;52.168;20.878;2023-04-15T13:23:37;99861.03;;;13.59;71.25
50484;BME280;36409;52.168;20.878;2023-04-15T13:26:09;99860.00;;;13.63;71.35
50484;BME280;36409;52.168;20.878;2023-04-15T13:28:42;99871.62;;;13.56;71.26
50484;BME280;36409;52.168;20.878;2023-04-15T13:31:14;99870.44;;;13.38;70.31
50484;BME280;36409;52.168;20.878;2023-04-15T13:33:47;99873.63;;;13.21;70.62
50484;BME280;36409;52.168;20.878;2023-04-15T13:36:19;99872.22;;;13.10;71.17